To NAV CANADA Home Page Login to a new session Search on AWWS site Feedback and Comments Disclaimer Vers la page française équivalente Tips FAQ What's new on the site To the Forecasts and Observations / NOTAM section To "File a Flight Plan" website Publications and other links Update of the User's profile FIC Telephone Numbers My Weather Data Folder Route Weather Data Regional Weather Data Local Weather Data To the Forecasts and Observations / NOTAM section
Request Generated 07/07/2015 at 00:28:45 UTC . Weather information available at that time is displayed.

METAR/TAF

HAMILTON/ON    

METAR CYHM 070000Z 10005KT 15SM FEW034 BKN250 23/19 A2998 RMK SC2CI5
SLP150 DENSITY ALT 1800FT=
METAR CYHM 062300Z 07007KT 15SM SCT036 BKN250 25/20 A2999 RMK SC4CS3
TCU ASOCTD SLP154 DENSITY ALT 2000FT=
METAR CYHM 062200Z 07005KT 15SM SCT034 BKN250 26/20 A2999 RMK CU3CI3
TCU ASOCTD SLP155 DENSITY ALT 2100FT=

TAF CYHM 062339Z 0700/0724 07007KT P6SM SCT040 BKN250
FM070300 17005KT P6SM FEW030 SCT080
FM070600 20008KT 6SM BR FEW004 PROB30 0706/0713 2SM BR BKN004
FM071300 21012G22KT P6SM FEW040
FM071500 22018G28KT P6SM -SHRA BKN020 OVC050 PROB30 0716/0721
VRB20G35KT 11/2SM TSRA BR BKN012 OVC050CB
FM072100 28010G20KT P6SM -SHRA BKN025 BKN100
FM072300 30010G20KT P6SM FEW025 SCT060
RMK NXT FCST BY 070600Z=
Your time UTC time
Weather data provided by Environment Canada and NAV CANADA